Paulo Reis

Recruteur en chef - Estrela da Amadora
25 Févr 2027
Jeudi
Processus

Personnalité

Adaptabilité (4) Ambition (12) Controverse (19) Loyauté (5) Pression (1) Professionnalisme (9) Sportivité (16) Tempérament (4)

Profil

Style d'entraînement Démocratique
Diplôme National B
Détermination 4
Gestion des joueurs 4
Motivation 9
Discipline 7
Satisfaction professionnelle
50%
Fatigue
0%
Rôle Recruteur en chef
Salaire 30.1K p/s
Contrat 14.03.2029

Performance

Comportement Normal
Efficacité de l'entraînement
19%
Développement des joueurs
35%
Prévention des blessures
25%
Mise en place tactique
35%

Événements récents

A participé à une réunion de recrutement maintenant
A participé à une réunion de recrutement maintenant
A recommandé une cible de transfert maintenant
A recommandé une cible de transfert maintenant
A recommandé une cible de transfert maintenant
A recommandé une cible de transfert maintenant
A recommandé une cible de transfert maintenant
A participé à une réunion de recrutement 7j

Suivi en cours

95
Joueur Club Statut Capacité Confiance Observé Dernière observation Dernier vote
João Silva Lusitânia Lourosa Négociation 98 / 98 65% 1 18.01.2027 Approuver
Giacomo Raspadori Atalanta Actif 146 / 149 40% 2 11.01.2027 -
Yousef Salech Cardiff City Actif 121 / 119 40% 1 11.01.2027 -
Wilson Isidor Sunderland Actif 136 / 131 40% 1 11.01.2027 -
Andreas Trimmel Red Bull Salzburg Actif 131 / 131 60% 1 01.01.2027 Approuver
Mao Hosoya Sagan Tosu Négociation 134 / 135 67% 1 01.01.2027 Approuver
Amar Memić Casa Pia Actif 127 / 128 62% 1 01.01.2027 Approuver
Aurélien Scheidler Charleroi Rapport prêt 119 / 119 67% 1 01.01.2027 Approuver
Mandla Mahlangu Ajax Cape Town Actif 105 / 99 40% 1 31.12.2026 -
Williams Manyama SuperSport United Actif 109 / 125 40% 3 28.12.2026 -
Lorougnon Gohi Académico de Viseu Actif 110 / 113 40% 1 28.12.2026 -
Emile Smith Rowe Fulham Actif 148 / 141 40% 5 27.12.2026 Observer
Tom Fellows Southampton Actif 137 / 122 40% 3 27.12.2026 -
Mario Dorgeles Braga Actif 136 / 136 40% 2 27.12.2026 -
Mandla Erasmus SuperSport United Actif 123 / 120 40% 3 25.12.2026 -
Luiz Mandaca Juventude Actif 113 / 123 40% 4 25.12.2026 -
Ruben van Bommel Ferencvaros Actif 129 / 126 40% 1 25.12.2026 -
Jordan van der Gaag Leiria Actif 107 / 107 40% 3 24.12.2026 -
Carlos Vicente Birmingham Actif 151 / 132 40% 7 23.12.2026 -
Ali Ahmed Norwich City Actif 129 / 130 40% 2 23.12.2026 -
Luis Quintero Torreense Actif 132 / 119 40% 1 23.12.2026 -
Sergio Arribas Almería Actif 130 / 138 40% 5 22.12.2026 -
Roberto Fernández Braga Actif 134 / 147 40% 3 22.12.2026 Observer
Christian Krasnodar Actif 135 / 134 40% 3 21.12.2026 -
Jackson Muleka Konyaspor Actif 131 / 129 40% 1 21.12.2026 -
Max Svensson Penafiel Actif 105 / 118 40% 2 20.12.2026 -
Kevin Fulham Actif 144 / 143 40% 1 20.12.2026 -
Figueiredo Alverca Actif 119 / 125 40% 3 19.12.2026 -
Zé Leite Leixões Actif 114 / 117 40% 1 19.12.2026 -
Othmane Maamma Watford Actif 123 / 136 40% 1 17.12.2026 -
Jadon Sancho Manchester United Actif 141 / 156 40% 4 16.12.2026 -
Jack Rudoni Coventry City Actif 140 / 129 40% 2 16.12.2026 -
Stanley Mills Oxford United Actif 121 / 125 40% 1 14.12.2026 -
Ezequiel Bullaude Santos Laguna Actif 127 / 107 40% 1 13.12.2026 -
Soma Anzai FC Tokyo Actif 119 / 134 40% 6 12.12.2026 -
Simo Maritimo Actif 125 / 104 40% 1 12.12.2026 -
Iker Benito Queretaro Actif 118 / 106 40% 1 12.12.2026 -
Dango Ouattara Brentford Actif 136 / 152 40% 3 10.12.2026 -
Reda Khadra Qarabag Actif 134 / 117 40% 1 10.12.2026 -
Adrien Truffert Bournemouth Actif 145 / 151 40% 4 08.12.2026 -
Keagan Mothiba SuperSport United Actif 122 / 110 40% 1 06.12.2026 -
Márcio Mendes Pandurii Actif 127 / 138 40% 5 04.12.2026 -
Santi García Gil Vicente Actif 141 / 131 40% 2 04.12.2026 -
Derensili Sanches Fernandes Huddersfield Town Actif 134 / 127 40% 2 03.12.2026 -
Mduduzi Shabalala Kaizer Chiefs Actif 107 / 120 40% 1 03.12.2026 -
Ryan Sessegnon Fulham Actif 137 / 149 40% 2 01.12.2026 -
Callum Hudson-Odoi Nottingham Forest Actif 143 / 149 40% 2 01.12.2026 -
Sorba Thomas Stoke City Actif 123 / 136 40% 1 29.11.2026 -
Tommy Conway Middlesbrough Actif 124 / 125 40% 1 27.11.2026 -
Makan Aïko Tondela Actif 129 / 127 40% 1 27.11.2026 -
Yan Diomandé Real Madrid Actif 158 / 148 40% 1 23.11.2026 -
Aaron Connolly Leyton Orient Actif 115 / 125 40% 1 21.11.2026 -
Pau Víctor AVS Actif 137 / 133 40% 2 20.11.2026 -
Vinícius Lopes Santa Clara Actif 128 / 124 40% 2 20.11.2026 -
Loum Tchaouna Coventry City Actif 136 / 139 40% 2 18.11.2026 -
Víctor Gómez Braga Actif 135 / 147 40% 2 16.11.2026 -
Petar Stanić Ludogorets Actif 122 / 144 40% 1 16.11.2026 -
Suleiman Camara Slovan Bratislava Actif 127 / 121 40% 1 14.11.2026 -
José Paradela Cruz Azul Actif 144 / 122 40% 3 13.11.2026 -
Xavi Simons Tottenham Actif 154 / 152 40% 3 13.11.2026 -
Pedro Porro Tottenham Actif 147 / 147 40% 2 13.11.2026 -
Julio Enciso Ipswich Town Actif 142 / 135 40% 2 12.11.2026 -
Tyler Adams Bournemouth Actif 149 / 162 40% 2 10.11.2026 -
Tshepang Moremi Orlando Pirates Actif 107 / 121 40% 2 10.11.2026 -
Kwadwo Baah Watford Actif 130 / 118 40% 1 07.11.2026 -
Chiquinho Alverca Actif 132 / 132 40% 2 06.11.2026 -
Matt O'Riley Brighton Actif 138 / 153 40% 1 04.11.2026 -
Isaiah Jones Luton Town Actif 129 / 123 40% 1 03.11.2026 -
Rafik Guitane Estoril Praia Actif 137 / 130 40% 3 02.11.2026 -
Tiago Palacios Estudiantes Actif 122 / 138 40% 1 01.11.2026 -
Gustavo Silva Vitoria Guimaraes Actif 120 / 118 40% 1 28.10.2026 -
Ole Pohlmann Rio Ave Actif 125 / 124 40% 1 28.10.2026 -
Cody Gakpo Liverpool Actif 155 / 166 40% 1 27.10.2026 -
Brian Gutiérrez Guadalajara Actif 137 / 144 40% 3 25.10.2026 -
Juan Pablo Domínguez Leon Actif 141 / 142 40% 1 18.10.2026 -
Bénie Traoré New York City Actif 116 / 139 40% 2 15.10.2026 -
Georginio Rutter Brighton Actif 153 / 155 40% 1 15.10.2026 -
Ozziel Herrera Tigres Actif 140 / 114 40% 1 13.10.2026 -
Jaden Philogene Ipswich Town Actif 138 / 131 40% 1 12.10.2026 -
Alexis Cuello San Lorenzo Actif 120 / 126 40% 1 12.10.2026 -
Alan Lescano Argentinos Juniors Actif 125 / 123 40% 1 10.10.2026 -
Tadeo Allende Inter Miami CF Actif 113 / 116 40% 1 09.10.2026 -
Joaquín Pereyra Minnesota United FC Actif 135 / 138 40% 1 09.10.2026 -
Jens Petter Hauge Bodo/Glimt Actif 132 / 122 40% 1 07.10.2026 -
Santiago Rodríguez Columbus Crew Actif 132 / 112 40% 1 05.10.2026 -
Mikkel Damsgaard Brentford Actif 151 / 138 40% 1 16.09.2026 -
Liel Abada Charlotte Football Club Actif 142 / 141 40% 1 14.09.2026 -
Pedro Vite Pumas UNAM Actif 131 / 113 40% 1 13.09.2026 -
Elias Achouri San Diego Football Club Actif 137 / 129 40% 1 13.09.2026 -
Matko Miljevic Racing Club Actif 126 / 129 40% 2 10.09.2026 -
André Luiz Sporting Kansas City Actif 123 / 111 40% 1 10.09.2026 -
Mateo Silvetti Inter Miami CF Actif 122 / 132 40% 1 09.09.2026 -
Joaquín Gho Argentinos Juniors Actif 117 / 119 40% 1 07.09.2026 -
Paulinho Leixões Actif 99 / 110 62% 1 17.08.2026 Approuver
Taiwo Awoniyi Coventry City Actif 124 / 139 40% 1 01.08.2026 -